createdAt,value
2023-10-07T00:01:52.024Z,14.32
2023-10-07T00:11:55.787Z,14.26
2023-10-07T00:22:00.777Z,14.18
2023-10-07T00:32:05.925Z,14.22
2023-10-07T00:42:11.324Z,14.20
2023-10-07T00:52:28.820Z,14.17
2023-10-07T01:02:34.762Z,14.15
2023-10-07T01:12:40.176Z,14.13
2023-10-07T01:23:04.064Z,14.10
2023-10-07T01:33:20.197Z,14.09
2023-10-07T01:43:25.872Z,14.10
2023-10-07T01:53:29.210Z,14.15
2023-10-07T02:03:34.215Z,14.29
2023-10-07T02:13:37.270Z,14.43
2023-10-07T02:23:44.093Z,14.54
2023-10-07T02:33:47.888Z,14.65
2023-10-07T02:43:52.312Z,14.81
2023-10-07T02:54:01.209Z,14.98
2023-10-07T03:04:12.273Z,15.08
2023-10-07T03:14:25.129Z,15.18
2023-10-07T03:24:42.444Z,15.29
2023-10-07T03:34:47.144Z,15.37
2023-10-07T03:44:51.846Z,15.43
2023-10-07T03:54:55.217Z,15.53
2023-10-07T04:05:11.667Z,15.56
2023-10-07T04:15:18.313Z,15.60
2023-10-07T04:25:23.535Z,15.59
2023-10-07T04:35:32.263Z,15.66
2023-10-07T04:45:50.522Z,15.67
2023-10-07T04:56:02.954Z,15.74
2023-10-07T05:06:07.769Z,15.73
2023-10-07T05:16:10.786Z,15.72
2023-10-07T05:26:18.673Z,15.74
2023-10-07T05:36:31.069Z,15.69
2023-10-07T05:46:36.378Z,15.78
2023-10-07T05:56:40.754Z,15.74
2023-10-07T06:06:45.120Z,15.80
2023-10-07T06:16:48.142Z,15.84
2023-10-07T06:26:54.852Z,15.88
2023-10-07T06:36:58.139Z,15.91
2023-10-07T06:47:03.958Z,15.96
2023-10-07T06:57:11.360Z,16.12
2023-10-07T07:07:17.598Z,16.21
2023-10-07T07:17:44.903Z,16.40
2023-10-07T07:27:49.983Z,16.62
2023-10-07T07:37:52.977Z,16.74
2023-10-07T07:47:58.126Z,16.79
2023-10-07T07:58:03.943Z,16.95
2023-10-07T08:08:19.961Z,16.95
2023-10-07T08:18:30.325Z,17.09
2023-10-07T08:28:43.797Z,17.27
2023-10-07T08:38:51.330Z,17.42
2023-10-07T08:48:58.809Z,17.64
2023-10-07T08:59:02.187Z,17.83
2023-10-07T09:09:07.932Z,18.06
2023-10-07T09:19:21.184Z,18.31
2023-10-07T09:29:28.700Z,18.52
2023-10-07T09:39:35.783Z,18.73
2023-10-07T09:49:40.241Z,18.99
2023-10-07T09:59:59.060Z,19.16
2023-10-07T10:10:08.655Z,19.33
2023-10-07T10:20:14.496Z,19.62
2023-10-07T10:30:25.577Z,19.97
2023-10-07T10:40:32.878Z,20.16
2023-10-07T10:50:37.313Z,20.32
2023-10-07T11:00:50.170Z,20.59
2023-10-07T11:10:58.491Z,20.74
2023-10-07T11:21:03.534Z,20.92
2023-10-07T11:31:08.368Z,21.29
2023-10-07T11:41:12.235Z,21.46
2023-10-07T11:51:16.714Z,21.66
2023-10-07T12:01:28.618Z,21.88
2023-10-07T12:11:36.583Z,22.19
2023-10-07T12:21:42.441Z,22.47
2023-10-07T12:31:54.225Z,22.70
2023-10-07T12:42:00.274Z,22.68
2023-10-07T12:52:10.425Z,22.63
2023-10-07T13:02:19.667Z,22.74
2023-10-07T13:12:25.587Z,22.85
2023-10-07T13:22:36.637Z,23.09
2023-10-07T13:32:45.404Z,23.16
2023-10-07T13:42:49.665Z,23.27
2023-10-07T13:53:13.593Z,23.18
2023-10-07T14:03:22.056Z,23.29
2023-10-07T14:13:27.875Z,23.24
2023-10-07T14:23:32.093Z,23.23
2023-10-07T14:33:36.697Z,23.25
2023-10-07T14:43:39.928Z,23.34
2023-10-07T14:53:45.873Z,23.29
2023-10-07T15:03:49.156Z,23.14
2023-10-07T15:13:57.086Z,23.06
2023-10-07T15:24:01.581Z,22.92
2023-10-07T15:34:08.834Z,22.69
2023-10-07T15:44:11.743Z,22.51
2023-10-07T15:54:16.502Z,22.37
2023-10-07T16:04:19.677Z,22.18
2023-10-07T16:14:25.087Z,21.98
2023-10-07T16:24:28.091Z,21.85
2023-10-07T16:34:32.245Z,21.78
2023-10-07T16:44:35.780Z,21.56
2023-10-07T16:54:40.012Z,21.27
2023-10-07T17:04:42.802Z,20.98
2023-10-07T17:14:46.958Z,20.77
2023-10-07T17:24:51.915Z,20.48
2023-10-07T17:34:56.260Z,20.20
2023-10-07T17:44:59.087Z,19.97
2023-10-07T17:55:04.725Z,19.75
2023-10-07T18:05:07.809Z,19.58
2023-10-07T18:15:12.964Z,19.41
2023-10-07T18:25:15.719Z,19.26
2023-10-07T18:35:27.849Z,19.11
2023-10-07T18:45:33.230Z,19.05
2023-10-07T18:55:37.505Z,18.98
2023-10-07T19:05:40.330Z,19.01
2023-10-07T19:15:44.898Z,19.03
2023-10-07T19:25:48.167Z,18.96
2023-10-07T19:35:52.395Z,18.85
2023-10-07T19:45:55.314Z,18.75
2023-10-07T19:55:59.887Z,18.66
2023-10-07T20:06:10.327Z,18.59
2023-10-07T20:16:16.680Z,18.52
2023-10-07T20:26:21.098Z,18.40
2023-10-07T20:36:25.406Z,18.37
2023-10-07T20:46:28.287Z,18.24
2023-10-07T20:56:32.488Z,18.23
2023-10-07T21:06:35.776Z,18.20
2023-10-07T21:16:40.794Z,18.13
2023-10-07T21:26:43.863Z,18.15
2023-10-07T21:36:48.069Z,18.14
2023-10-07T21:46:52.206Z,18.18
2023-10-07T21:56:56.419Z,18.13
2023-10-07T22:06:59.172Z,18.16
2023-10-07T22:17:06.602Z,18.20
2023-10-07T22:27:09.567Z,18.17
2023-10-07T22:37:18.895Z,18.03
2023-10-07T22:47:24.930Z,17.95
2023-10-07T22:57:31.237Z,17.89
2023-10-07T23:07:43.894Z,17.66
2023-10-07T23:17:52.857Z,17.57
2023-10-07T23:27:56.002Z,17.40
2023-10-07T23:38:10.028Z,17.36
2023-10-07T23:48:19.523Z,17.26
2023-10-07T23:58:25.670Z,17.15
